Time;durP1;ratioP1;P1;durP2;ratioP2;P2;SDS_P1;SDS_P2;PMS_P1;PMS_P2;Temp;Humidity;BMP_temperature;BMP_pressure;BME280_temperature;BME280_humidity;BME280_pressure;Samples;Min_cycle;Max_cycle;Signal;HPM_P1;HPM_P2
2021/08/14 00:00:46;;;;;;;6.20;4.57;;;;;;;23.07;69.40;101763.47;4929981;28;102398;-89
2021/08/14 00:03:12;;;;;;;4.90;4.43;;;;;;;23.06;69.16;101759.88;4929021;28;102133;-87
2021/08/14 00:05:39;;;;;;;6.10;5.00;;;;;;;23.06;69.29;101765.44;4938200;28;102235;-87
2021/08/14 00:08:07;;;;;;;5.63;4.80;;;;;;;23.07;69.48;101775.38;4942082;28;102057;-86
2021/08/14 00:10:36;;;;;;;5.40;4.90;;;;;;;23.06;69.43;101770.97;4940844;28;102070;-88
2021/08/14 00:13:02;;;;;;;7.07;4.88;;;;;;;23.06;69.38;101776.53;4938711;28;102214;-87
2021/08/14 00:15:29;;;;;;;5.50;4.90;;;;;;;23.07;69.39;101769.81;4934008;28;102274;-89
2021/08/14 00:17:56;;;;;;;5.25;4.75;;;;;;;23.07;69.78;101782.91;4934290;28;102087;-87
2021/08/14 00:20:22;;;;;;;5.60;5.00;;;;;;;23.05;69.52;101769.38;4936314;28;102532;-88
2021/08/14 00:22:50;;;;;;;5.75;4.85;;;;;;;23.06;69.51;101765.44;4929488;28;103171;-87
2021/08/14 00:25:18;;;;;;;7.80;5.20;;;;;;;23.06;69.49;101765.44;4943738;28;102713;-88
2021/08/14 00:27:45;;;;;;;7.63;5.53;;;;;;;23.05;69.65;101765.78;4928308;28;102179;-87
2021/08/14 00:30:12;;;;;;;5.50;4.90;;;;;;;23.05;69.33;101763.00;4934537;28;102222;-87
2021/08/14 00:32:38;;;;;;;7.00;5.72;;;;;;;23.05;69.47;101769.38;4935866;28;102148;-87
2021/08/14 00:35:06;;;;;;;6.07;5.15;;;;;;;23.05;69.65;101780.47;4939164;28;102866;-88
2021/08/14 00:37:32;;;;;;;6.15;5.38;;;;;;;23.05;69.41;101780.47;4928415;28;102069;-87
2021/08/14 00:40:02;;;;;;;5.22;4.68;;;;;;;23.04;69.50;101778.81;4937634;28;102103;-87
2021/08/14 00:42:30;;;;;;;5.78;5.18;;;;;;;23.05;69.70;101774.91;4931625;28;102118;-87
2021/08/14 00:45:00;;;;;;;6.07;5.28;;;;;;;23.04;69.59;101773.25;4930544;28;102779;-87
2021/08/14 00:47:28;;;;;;;5.95;5.25;;;;;;;23.04;69.47;101784.38;4939633;28;102123;-87
2021/08/14 00:49:55;;;;;;;5.80;5.20;;;;;;;23.04;69.60;101773.25;4933551;28;102118;-87
2021/08/14 00:52:22;;;;;;;5.65;5.03;;;;;;;23.05;69.61;101780.47;4954453;28;102298;-87
2021/08/14 00:54:49;;;;;;;6.95;5.72;;;;;;;23.04;69.56;101773.25;4930658;28;102861;-87
2021/08/14 00:57:16;;;;;;;6.72;5.65;;;;;;;23.03;69.63;101777.19;4941626;28;101818;-87
2021/08/14 00:59:46;;;;;;;6.32;5.45;;;;;;;23.04;69.59;101773.25;4938420;28;102835;-90
2021/08/14 01:02:14;;;;;;;7.07;5.88;;;;;;;23.04;69.62;101773.25;4930486;28;102940;-87
2021/08/14 01:04:41;;;;;;;7.47;5.93;;;;;;;23.04;69.49;101767.72;4945247;28;102802;-86
2021/08/14 01:07:07;;;;;;;6.70;5.57;;;;;;;23.03;69.72;101766.09;4939800;28;101963;-87
2021/08/14 01:09:34;;;;;;;8.77;5.20;;;;;;;23.03;69.48;101763.31;4935888;28;102251;-86
2021/08/14 01:12:07;;;;;;;6.47;5.50;;;;;;;23.03;69.63;101766.09;4942706;28;102205;-86
2021/08/14 01:14:34;;;;;;;7.40;4.93;;;;;;;23.03;69.47;101761.34;4928951;28;102874;-87
2021/08/14 01:17:02;;;;;;;6.72;5.78;;;;;;;23.03;69.55;101763.31;4944064;28;101945;-86
2021/08/14 01:19:29;;;;;;;6.75;5.60;;;;;;;23.02;69.41;101759.72;4941685;28;102065;-86
2021/08/14 01:21:55;;;;;;;7.18;5.38;;;;;;;23.03;69.46;101760.53;4937948;28;102091;-86
2021/08/14 01:24:23;;;;;;;7.10;5.45;;;;;;;23.03;69.48;101754.97;4939068;28;102736;-87
2021/08/14 01:26:52;;;;;;;6.28;5.35;;;;;;;23.03;69.46;101749.44;4945843;28;101800;-86
2021/08/14 01:29:18;;;;;;;8.05;5.80;;;;;;;23.03;69.61;101752.22;4956695;28;102049;-87
2021/08/14 01:31:46;;;;;;;5.60;5.03;;;;;;;23.02;69.62;101753.34;4943795;28;102044;-86
2021/08/14 01:34:12;;;;;;;9.25;5.38;;;;;;;23.02;69.44;101756.13;4957883;28;102661;-87
2021/08/14 01:36:39;;;;;;;6.53;5.68;;;;;;;23.02;69.52;101747.81;4939960;28;101936;-86
2021/08/14 01:39:07;;;;;;;6.38;5.40;;;;;;;23.02;69.51;101753.34;4944360;28;101927;-86
2021/08/14 01:41:34;;;;;;;6.35;5.53;;;;;;;23.01;69.66;101752.53;4949606;28;102085;-87
2021/08/14 01:44:04;;;;;;;5.95;5.03;;;;;;;23.01;69.37;101752.53;4973954;28;102795;-89
2021/08/14 01:46:34;;;;;;;6.10;5.50;;;;;;;23.01;69.65;101758.09;4947048;28;102480;-88
2021/08/14 01:49:01;;;;;;;6.57;5.88;;;;;;;23.01;69.70;101752.53;4951165;28;102155;-87
2021/08/14 01:51:29;;;;;;;7.15;5.55;;;;;;;23.01;69.67;101748.97;4935922;28;102182;-87
2021/08/14 01:54:00;;;;;;;9.23;5.60;;;;;;;23.01;69.42;101751.75;4936192;28;102719;-87
2021/08/14 01:56:28;;;;;;;6.43;5.72;;;;;;;23.02;69.46;101753.34;4959809;28;101572;-88
2021/08/14 01:58:54;;;;;;;7.38;5.40;;;;;;;23.01;69.76;101751.75;4944126;28;101576;-87
2021/08/14 02:01:23;;;;;;;6.38;5.35;;;;;;;23.01;69.61;101746.19;4945021;28;102076;-87
2021/08/14 02:03:50;;;;;;;;;;;;;;;23.00;69.65;101756.44;4943885;28;102748;-88
2021/08/14 02:06:18;;;;;;;6.60;5.88;;;;;;;23.01;69.54;101751.75;4943193;28;101798;-88
2021/08/14 02:08:46;;;;;;;7.32;5.30;;;;;;;23.01;69.59;101751.75;4943842;28;101894;-88
2021/08/14 02:11:15;;;;;;;8.23;5.75;;;;;;;22.99;69.82;101748.47;4943936;28;102073;-88
2021/08/14 02:13:47;;;;;;;6.60;5.38;;;;;;;23.01;69.70;101757.28;4940767;28;102423;-88
2021/08/14 02:16:15;;;;;;;8.07;5.37;;;;;;;23.00;69.46;101750.91;4944298;28;101914;-86
2021/08/14 02:18:45;;;;;;;6.20;5.28;;;;;;;23.01;69.92;101751.75;4942652;28;102118;-86
2021/08/14 02:21:12;;;;;;;6.22;5.43;;;;;;;23.00;69.67;101750.09;4943225;28;102162;-86
2021/08/14 02:23:39;;;;;;;7.15;5.72;;;;;;;23.00;69.67;101750.09;4942859;28;102718;-86
2021/08/14 02:26:07;;;;;;;7.97;5.93;;;;;;;23.00;69.68;101744.53;4937495;28;101731;-86
2021/08/14 02:28:34;;;;;;;7.40;5.55;;;;;;;23.00;69.77;101750.09;4955061;28;101778;-86
2021/08/14 02:31:02;;;;;;;7.28;5.45;;;;;;;22.99;69.73;101742.91;4935650;28;102179;-86
2021/08/14 02:33:29;;;;;;;6.40;5.70;;;;;;;22.99;69.65;101749.28;4938702;28;102500;-87
2021/08/14 02:35:57;;;;;;;6.05;5.13;;;;;;;23.00;69.55;101744.53;4938523;28;102140;-90
2021/08/14 02:38:24;;;;;;;5.75;5.20;;;;;;;23.00;69.94;101741.75;4930872;28;102070;-87
2021/08/14 02:40:50;;;;;;;6.32;5.38;;;;;;;22.99;69.55;101742.91;4939655;28;102347;-87
2021/08/14 02:43:17;;;;;;;6.10;5.43;;;;;;;22.99;69.75;101742.91;4937627;28;102763;-89
2021/08/14 02:45:45;;;;;;;5.80;4.88;;;;;;;22.98;69.72;101741.28;4928412;28;102095;-88
2021/08/14 02:48:15;;;;;;;5.90;5.30;;;;;;;22.99;69.75;101748.47;4929612;28;101998;-87
2021/08/14 02:50:42;;;;;;;6.00;5.07;;;;;;;22.98;69.66;101742.09;4937819;28;102089;-90
2021/08/14 02:53:10;;;;;;;7.05;5.95;;;;;;;22.98;69.55;101747.66;4935372;28;102686;-90
2021/08/14 02:55:37;;;;;;;7.47;5.37;;;;;;;22.99;69.71;101751.25;4932974;28;102150;-90
2021/08/14 02:58:04;;;;;;;5.53;4.93;;;;;;;22.99;69.85;101756.78;4934990;28;102197;-87
2021/08/14 03:00:34;;;;;;;6.15;5.53;;;;;;;22.98;69.62;101749.63;4929818;28;102167;-87
2021/08/14 03:03:02;;;;;;;6.18;5.28;;;;;;;22.98;69.79;101752.41;4934050;28;102819;-87
2021/08/14 03:05:28;;;;;;;6.63;5.45;;;;;;;22.97;69.77;101753.53;4927251;28;101990;-87
2021/08/14 03:07:55;;;;;;;6.47;5.57;;;;;;;22.97;69.59;101756.28;4936411;28;102264;-87
2021/08/14 03:10:24;;;;;;;6.23;5.40;;;;;;;22.98;69.87;101760.72;4938394;28;102154;-88
2021/08/14 03:12:51;;;;;;;6.85;5.78;;;;;;;22.97;69.69;101756.28;4935597;28;102754;-87
2021/08/14 03:15:18;;;;;;;6.55;5.32;;;;;;;22.98;69.51;101766.28;4935230;28;102294;-87
2021/08/14 03:17:45;;;;;;;6.13;5.30;;;;;;;22.98;69.72;101769.06;4931086;28;102188;-87
2021/08/14 03:20:12;;;;;;;6.80;5.65;;;;;;;22.96;69.65;101761.03;4938060;28;102176;-87
2021/08/14 03:22:38;;;;;;;6.45;5.78;;;;;;;22.97;69.66;101761.84;4965949;28;102431;-87
2021/08/14 03:25:10;;;;;;;6.63;5.47;;;;;;;22.96;69.70;101769.38;4953058;28;102226;-87
2021/08/14 03:27:38;;;;;;;6.72;5.97;;;;;;;22.96;69.71;101774.91;4935269;28;102081;-87
2021/08/14 03:30:07;;;;;;;7.55;5.45;;;;;;;22.96;69.78;101771.31;4939903;28;102121;-87
2021/08/14 03:32:34;;;;;;;6.22;5.45;;;;;;;22.96;69.55;101765.78;4941206;28;102699;-87
2021/08/14 03:35:01;;;;;;;6.78;5.47;;;;;;;22.97;69.93;101761.84;4928002;28;102153;-87
2021/08/14 03:37:27;;;;;;;7.10;5.18;;;;;;;22.96;69.77;101766.59;4936433;28;102263;-87
2021/08/14 03:39:54;;;;;;;6.95;5.30;;;;;;;22.97;70.08;101772.94;4942894;28;102126;-87
2021/08/14 03:42:24;;;;;;;6.40;5.63;;;;;;;22.96;69.96;101771.31;4933070;28;102665;-87
2021/08/14 03:44:53;;;;;;;6.78;6.00;;;;;;;22.96;69.73;101771.31;4935652;28;102301;-87
2021/08/14 03:47:19;;;;;;;;;;;;;;;22.97;69.98;101772.94;4936854;28;102141;-87
2021/08/14 03:49:46;;;;;;;7.55;5.43;;;;;;;22.96;69.83;101774.09;4934878;28;102207;-87
2021/08/14 03:52:13;;;;;;;6.80;5.70;;;;;;;22.96;69.84;101776.88;4941644;28;102514;-87
2021/08/14 03:54:42;;;;;;;6.65;5.88;;;;;;;22.96;69.86;101772.13;4936863;28;102042;-87
2021/08/14 03:57:10;;;;;;;6.68;5.88;;;;;;;22.97;69.96;101778.50;4940048;28;102232;-87
2021/08/14 03:59:36;;;;;;;7.15;5.93;;;;;;;22.96;69.99;101782.44;4932075;28;102396;-87
2021/08/14 04:02:04;;;;;;;6.88;5.93;;;;;;;22.96;70.02;101776.88;4953714;28;101969;-86
2021/08/14 04:04:31;;;;;;;7.40;5.85;;;;;;;22.97;69.98;101772.94;4954658;28;102219;-88
2021/08/14 04:06:58;;;;;;;7.50;6.25;;;;;;;22.97;69.85;101775.72;4940651;28;102214;-87
2021/08/14 04:09:25;;;;;;;6.75;6.05;;;;;;;22.96;69.89;101777.69;4932507;28;102133;-87
2021/08/14 04:11:53;;;;;;;7.37;5.70;;;;;;;22.96;69.75;101776.88;4934876;28;102399;-87
2021/08/14 04:14:20;;;;;;;6.80;5.43;;;;;;;22.96;69.83;101779.66;4937408;28;102051;-87
2021/08/14 04:16:47;;;;;;;7.40;5.50;;;;;;;22.95;69.97;101776.06;4938717;28;102035;-87
2021/08/14 04:19:15;;;;;;;7.45;5.90;;;;;;;22.96;69.75;101783.25;4938616;28;102758;-87
2021/08/14 04:21:44;;;;;;;6.27;5.57;;;;;;;22.96;69.83;101785.22;4927058;28;102901;-87
2021/08/14 04:24:11;;;;;;;6.70;5.82;;;;;;;22.96;70.00;101788.78;4934615;28;102628;-87
2021/08/14 04:26:40;;;;;;;7.75;6.13;;;;;;;22.96;69.80;101782.44;4937937;28;102179;-87
2021/08/14 04:29:10;;;;;;;6.80;5.60;;;;;;;22.96;70.02;101782.44;4940266;28;102206;-87
2021/08/14 04:31:36;;;;;;;6.68;5.60;;;;;;;22.95;69.97;101783.59;4939070;28;102150;-87
2021/08/14 04:34:03;;;;;;;8.55;6.00;;;;;;;22.95;69.90;101787.19;4931497;28;102111;-87
2021/08/14 04:36:31;;;;;;;6.75;6.05;;;;;;;22.96;69.90;101787.97;4941233;28;102163;-87
2021/08/14 04:38:57;;;;;;;6.43;5.77;;;;;;;22.96;70.02;101788.78;4964724;28;102247;-87
2021/08/14 04:41:24;;;;;;;6.90;5.32;;;;;;;22.96;69.92;101776.88;4944995;28;104043;-87
2021/08/14 04:43:51;;;;;;;5.97;5.03;;;;;;;22.96;69.97;101776.88;4941101;28;102101;-87
2021/08/14 04:46:18;;;;;;;6.10;5.50;;;;;;;22.95;69.97;101778.84;4939765;28;102135;-86
2021/08/14 04:48:44;;;;;;;7.35;5.63;;;;;;;22.97;70.05;101786.84;4941318;28;102248;-86
2021/08/14 04:51:11;;;;;;;6.35;5.43;;;;;;;22.96;70.32;101787.97;4932409;28;102726;-86
2021/08/14 04:53:40;;;;;;;6.20;5.53;;;;;;;22.96;70.00;101783.25;4934578;28;102190;-87
2021/08/14 04:56:10;;;;;;;6.30;5.40;;;;;;;22.95;70.17;101784.41;4942399;28;102150;-86
2021/08/14 04:58:37;;;;;;;5.47;4.97;;;;;;;22.96;70.04;101794.34;4940137;28;102200;-86
2021/08/14 05:01:03;;;;;;;6.68;5.68;;;;;;;22.97;70.22;101789.59;4935215;28;102742;-86
2021/08/14 05:03:30;;;;;;;6.20;5.15;;;;;;;22.97;70.17;101796.00;4940768;28;102328;-86
2021/08/14 05:05:57;;;;;;;6.25;5.05;;;;;;;22.96;70.09;101787.97;4937268;28;102131;-86
2021/08/14 05:08:23;;;;;;;6.03;5.10;;;;;;;22.96;70.16;101793.53;4938833;28;102240;-86
2021/08/14 05:10:52;;;;;;;8.03;5.83;;;;;;;22.96;70.11;101787.97;4946345;28;103006;-87
2021/08/14 05:13:19;;;;;;;5.83;4.80;;;;;;;22.97;70.11;101789.59;4937552;28;102150;-87
2021/08/14 05:15:45;;;;;;;5.78;5.18;;;;;;;22.97;70.20;101789.59;4931374;28;102161;-87
2021/08/14 05:18:15;;;;;;;6.13;5.40;;;;;;;22.96;70.09;101794.34;4940445;28;102327;-87
2021/08/14 05:20:43;;;;;;;6.97;5.38;;;;;;;22.96;70.07;101788.78;4937842;28;102395;-87
2021/08/14 05:23:13;;;;;;;6.95;5.30;;;;;;;22.98;70.18;101788.47;4935697;28;102209;-87
2021/08/14 05:25:40;;;;;;;5.72;5.00;;;;;;;22.97;70.18;101784.06;4936207;28;102097;-87
2021/08/14 05:28:08;;;;;;;6.38;5.15;;;;;;;22.98;70.42;101782.94;4935625;28;104309;-87
2021/08/14 05:30:35;;;;;;;6.22;5.40;;;;;;;22.98;70.14;101785.72;4937108;28;102733;-87
2021/08/14 05:33:02;;;;;;;6.18;5.05;;;;;;;22.98;70.25;101791.25;4939886;28;102175;-89
2021/08/14 05:35:29;;;;;;;5.70;4.75;;;;;;;22.98;70.25;101792.06;4935158;28;102083;-89
2021/08/14 05:37:56;;;;;;;7.47;5.35;;;;;;;22.99;70.23;101787.34;4926469;28;102194;-90
2021/08/14 05:40:22;;;;;;;7.80;5.10;;;;;;;22.99;70.21;101788.13;4926106;28;102759;-90
2021/08/14 05:42:49;;;;;;;6.22;5.18;;;;;;;22.99;70.32;101790.91;4935275;28;102016;-90
2021/08/14 05:45:17;;;;;;;5.97;5.07;;;;;;;23.00;70.06;101800.06;4936767;28;102047;-89
2021/08/14 05:47:44;;;;;;;5.75;4.93;;;;;;;23.01;70.24;101787.81;4933572;28;102208;-89
2021/08/14 05:50:11;;;;;;;6.00;4.97;;;;;;;23.00;70.16;101789.75;4932419;28;105215;-89
2021/08/14 05:52:38;;;;;;;5.80;5.05;;;;;;;23.02;70.21;101786.69;4939087;28;102015;-87
2021/08/14 05:55:06;;;;;;;5.80;5.15;;;;;;;23.01;69.91;101780.31;4925150;28;102053;-87
2021/08/14 05:57:33;;;;;;;6.50;5.40;;;;;;;23.02;70.16;101790.25;4941344;28;102070;-87
2021/08/14 06:00:00;;;;;;;5.60;4.95;;;;;;;23.03;70.02;101783.56;4954848;28;102773;-87
2021/08/14 06:02:28;;;;;;;5.65;4.85;;;;;;;23.04;70.27;101781.59;4939427;28;102134;-87
2021/08/14 06:04:54;;;;;;;5.75;5.00;;;;;;;23.05;70.13;101779.66;4934514;28;101824;-87
2021/08/14 06:07:21;;;;;;;6.53;5.05;;;;;;;23.05;70.12;101786.03;4943954;28;102288;-87
2021/08/14 06:09:48;;;;;;;6.20;5.60;;;;;;;23.07;69.92;101778.16;4936585;28;102672;-87
2021/08/14 06:12:15;;;;;;;6.68;5.75;;;;;;;23.07;70.00;101778.16;4940263;28;102110;-88
2021/08/14 06:14:42;;;;;;;6.50;5.65;;;;;;;23.08;69.97;101779.81;4940736;28;102213;-87
2021/08/14 06:17:08;;;;;;;6.53;4.95;;;;;;;23.10;70.06;101782.25;4938765;28;102040;-87
2021/08/14 06:19:36;;;;;;;6.60;5.47;;;;;;;23.11;69.96;101772.75;4931837;28;102948;-87
2021/08/14 06:22:04;;;;;;;8.40;5.43;;;;;;;23.10;69.87;101765.59;4942278;28;102043;-87
2021/08/14 06:24:31;;;;;;;5.43;4.80;;;;;;;23.11;69.95;101765.25;4943122;28;102191;-87
2021/08/14 06:26:57;;;;;;;6.38;5.10;;;;;;;23.11;70.15;101778.31;4941795;28;101954;-87
2021/08/14 06:29:24;;;;;;;6.35;4.97;;;;;;;23.12;69.90;101768.84;4941797;28;102943;-88
2021/08/14 06:31:51;;;;;;;6.50;5.38;;;;;;;23.12;69.66;101772.44;4934698;28;102062;-87
2021/08/14 06:34:19;;;;;;;5.82;5.15;;;;;;;23.13;70.05;101765.75;4940263;28;102160;-87
2021/08/14 06:36:47;;;;;;;6.15;4.63;;;;;;;23.13;70.04;101764.94;4958080;28;102136;-87
2021/08/14 06:39:13;;;;;;;6.10;4.90;;;;;;;23.14;69.73;101772.91;4937186;28;105319;-90
2021/08/14 06:41:40;;;;;;;5.15;4.65;;;;;;;23.15;70.22;101771.78;4937530;28;102586;-91
2021/08/14 06:44:06;;;;;;;7.05;5.15;;;;;;;23.15;69.79;101762.63;4934565;28;102134;-90
2021/08/14 06:46:34;;;;;;;5.57;4.60;;;;;;;23.16;69.62;101770.63;4947328;28;102247;-90
2021/08/14 06:49:03;;;;;;;5.45;4.50;;;;;;;23.16;69.75;101770.63;4934832;28;102531;-90
2021/08/14 06:51:30;;;;;;;7.43;5.43;;;;;;;23.17;69.78;101777.81;4940120;28;102104;-91
2021/08/14 06:53:59;;;;;;;6.38;5.05;;;;;;;23.17;69.69;101774.22;4934679;28;102132;-90
2021/08/14 06:56:26;;;;;;;5.32;4.82;;;;;;;23.18;69.65;101775.84;4933516;28;102087;-90
2021/08/14 06:58:53;;;;;;;5.20;4.70;;;;;;;23.19;69.72;101777.50;4930475;28;102734;-89
2021/08/14 07:01:19;;;;;;;5.68;4.63;;;;;;;23.19;69.45;101775.53;4935274;28;102218;-91
2021/08/14 07:03:47;;;;;;;6.07;4.55;;;;;;;23.20;69.44;101770.78;4936312;28;102181;-90
2021/08/14 07:06:18;;;;;;;5.07;4.57;;;;;;;23.20;69.68;101777.16;4939004;28;102180;-90
2021/08/14 07:08:46;;;;;;;5.30;4.50;;;;;;;23.21;69.68;101777.97;4937884;28;102507;-90
2021/08/14 07:11:14;;;;;;;6.03;4.82;;;;;;;23.22;69.70;101774.88;4941136;28;102101;-90
2021/08/14 07:13:42;;;;;;;5.22;4.72;;;;;;;23.21;69.64;101773.22;4930266;28;102113;-90
2021/08/14 07:16:14;;;;;;;5.53;4.55;;;;;;;23.23;69.40;101770.94;4939641;28;102225;-88
2021/08/14 07:18:50;;;;;;;4.95;4.38;;;;;;;23.23;69.71;101772.91;4943106;28;102778;-88
2021/08/14 07:21:16;;;;;;;5.10;4.53;;;;;;;23.25;69.51;101778.91;4952051;28;101880;-88
2021/08/14 07:23:43;;;;;;;5.70;4.40;;;;;;;23.26;69.39;101775.00;4966756;28;101918;-88
2021/08/14 07:26:10;;;;;;;4.70;4.22;;;;;;;23.25;69.52;101771.41;4967376;28;102021;-88
2021/08/14 07:28:39;;;;;;;5.05;4.38;;;;;;;23.27;69.47;101776.66;4965946;28;102751;-88
2021/08/14 07:31:06;;;;;;;5.07;4.23;;;;;;;23.28;69.90;101783.81;4965387;28;101918;-88
2021/08/14 07:33:33;;;;;;;5.72;4.45;;;;;;;23.30;69.39;101780.69;4937445;28;101889;-87
2021/08/14 07:35:59;;;;;;;6.18;4.43;;;;;;;23.30;69.39;101775.13;4958989;28;102155;-87
2021/08/14 07:38:29;;;;;;;7.00;4.57;;;;;;;23.30;69.48;101780.69;4956805;28;102493;-89
2021/08/14 07:40:55;;;;;;;4.72;4.18;;;;;;;23.31;69.51;101774.00;4946645;28;102024;-89
2021/08/14 07:43:22;;;;;;;4.70;4.30;;;;;;;23.31;69.52;101776.78;4944989;28;101753;-89
2021/08/14 07:45:50;;;;;;;4.72;4.30;;;;;;;23.31;69.45;101776.78;4947193;28;102065;-89
2021/08/14 07:48:16;;;;;;;4.50;4.10;;;;;;;23.31;69.29;101766.50;4945969;28;102795;-88
2021/08/14 07:50:43;;;;;;;5.10;4.07;;;;;;;23.32;69.39;101761.75;4946374;28;101861;-88
2021/08/14 07:53:09;;;;;;;4.63;4.18;;;;;;;23.34;69.45;101765.03;4940377;28;101887;-88
2021/08/14 07:55:36;;;;;;;7.25;4.25;;;;;;;23.33;69.42;101761.41;4944954;28;102034;-89
2021/08/14 07:58:10;;;;;;;5.60;4.15;;;;;;;23.34;69.21;101751.13;4945646;28;102714;-89
2021/08/14 08:00:37;;;;;;;4.97;4.00;;;;;;;23.34;69.36;101759.47;4940761;28;101815;-89
2021/08/14 08:03:04;;;;;;;6.22;4.38;;;;;;;23.34;69.00;101751.13;4926160;28;101622;-90
2021/08/14 08:05:31;;;;;;;4.97;4.47;;;;;;;23.36;69.26;101751.59;4966464;28;102223;-89
2021/08/14 08:08:00;;;;;;;4.97;4.47;;;;;;;23.36;69.37;101751.59;4964890;28;102815;-89
2021/08/14 08:10:27;;;;;;;5.30;4.45;;;;;;;23.36;69.17;101757.97;4947339;28;101958;-89
2021/08/14 08:12:53;;;;;;;4.82;3.67;;;;;;;23.37;69.18;101753.22;4945943;28;101701;-90
2021/08/14 08:15:20;;;;;;;4.93;4.10;;;;;;;23.37;69.06;101758.78;4947277;28;102066;-90
2021/08/14 08:17:46;;;;;;;4.78;4.35;;;;;;;23.37;69.07;101753.22;4945617;28;102681;-91
2021/08/14 08:20:16;;;;;;;4.10;3.67;;;;;;;23.38;68.84;101749.31;4944454;28;101898;-90
2021/08/14 08:22:43;;;;;;;5.00;4.13;;;;;;;23.38;68.66;101738.22;4946297;28;101779;-89
2021/08/14 08:25:11;;;;;;;4.75;4.30;;;;;;;23.38;68.87;101735.44;4946259;28;102048;-89
2021/08/14 08:27:38;;;;;;;5.23;3.97;;;;;;;23.38;68.75;101744.56;4943510;28;102733;-89
2021/08/14 08:30:06;;;;;;;4.45;4.05;;;;;;;23.38;68.75;101736.25;4958245;28;101884;-89
2021/08/14 08:32:33;;;;;;;5.18;4.38;;;;;;;23.38;68.76;101738.22;4951252;28;102080;-89
2021/08/14 08:34:59;;;;;;;4.65;4.20;;;;;;;23.38;68.79;101736.25;4946218;28;102182;-88
2021/08/14 08:37:28;;;;;;;6.25;4.22;;;;;;;23.39;68.67;101735.09;4928796;28;102817;-90
2021/08/14 08:39:54;;;;;;;4.93;4.30;;;;;;;23.39;68.82;101734.28;4951243;28;102305;-90
2021/08/14 08:42:21;;;;;;;4.55;3.90;;;;;;;23.39;68.64;101746.19;4927307;28;102222;-90
2021/08/14 08:44:49;;;;;;;4.80;4.40;;;;;;;23.40;68.40;101735.88;4925719;28;102157;-90
2021/08/14 08:47:17;;;;;;;4.75;4.28;;;;;;;23.40;68.78;101731.16;4929891;28;102727;-90
2021/08/14 08:49:52;;;;;;;4.45;4.03;;;;;;;23.39;68.68;101729.53;4933486;28;102251;-91
2021/08/14 08:52:19;;;;;;;4.40;4.00;;;;;;;23.40;68.55;101727.56;4935730;28;102133;-90
2021/08/14 08:54:48;;;;;;;4.38;3.80;;;;;;;23.40;68.45;101724.78;4932001;28;102111;-90
2021/08/14 08:57:15;;;;;;;5.07;4.50;;;;;;;23.40;68.52;101722.81;4937959;28;102720;-90
2021/08/14 08:59:43;;;;;;;4.65;3.80;;;;;;;23.41;68.34;101720.88;4933577;28;102108;-90
2021/08/14 09:02:21;;;;;;;4.40;3.97;;;;;;;23.40;68.50;101724.78;4931747;28;102209;-90
2021/08/14 09:05:08;;;;;;;6.20;4.40;;;;;;;23.41;68.47;101726.44;4936246;28;102130;-90
2021/08/14 09:07:35;;;;;;;5.60;4.07;;;;;;;23.41;68.31;101723.66;4935298;28;102362;-91
2021/08/14 09:10:05;;;;;;;4.85;4.43;;;;;;;23.40;68.32;101724.78;4937960;28;102140;-90
2021/08/14 09:12:35;;;;;;;5.15;3.95;;;;;;;23.40;68.26;101722.00;4929651;28;102157;-90
2021/08/14 09:15:07;;;;;;;4.60;4.20;;;;;;;23.40;68.08;101708.13;4935206;28;102057;-90
2021/08/14 09:17:35;;;;;;;5.47;4.22;;;;;;;23.41;68.16;101701.44;4931548;28;102534;-90
2021/08/14 09:20:12;;;;;;;4.13;3.72;;;;;;;23.40;68.58;101703.38;4936091;28;102214;-90
2021/08/14 09:22:39;;;;;;;4.32;3.90;;;;;;;23.41;68.16;101705.03;4940114;28;102122;-88
2021/08/14 09:25:13;;;;;;;4.70;4.30;;;;;;;23.41;68.35;101693.09;4940448;28;102086;-88
2021/08/14 09:27:55;;;;;;;4.95;4.35;;;;;;;23.40;68.21;101703.38;4939898;28;102717;-88
2021/08/14 09:30:44;;;;;;;4.38;3.97;;;;;;;23.41;68.11;101698.66;4925218;28;101816;-88
2021/08/14 09:33:13;;;;;;;5.03;4.53;;;;;;;23.41;68.07;101698.66;4943954;28;102052;-87
2021/08/14 09:35:40;;;;;;;4.72;4.30;;;;;;;23.41;67.98;101693.91;4942103;28;101995;-88
2021/08/14 09:38:09;;;;;;;4.90;4.43;;;;;;;23.41;68.04;101704.22;4935607;28;102993;-88
2021/08/14 09:40:40;;;;;;;4.50;4.00;;;;;;;23.42;68.33;101700.28;4940917;28;102130;-88
2021/08/14 09:43:07;;;;;;;5.18;4.63;;;;;;;23.40;68.22;101697.81;4931518;28;102110;-88
2021/08/14 09:45:34;;;;;;;5.15;4.40;;;;;;;23.41;68.05;101699.47;4964062;28;102316;-87
2021/08/14 09:48:19;;;;;;;4.93;4.30;;;;;;;23.42;68.26;101691.94;4940038;28;104743;-87
2021/08/14 09:50:47;;;;;;;4.82;4.30;;;;;;;23.41;68.33;101693.09;4941153;28;101958;-87
2021/08/14 09:53:20;;;;;;;4.63;4.22;;;;;;;23.41;68.32;101695.88;4941919;28;102164;-87
2021/08/14 09:55:54;;;;;;;5.38;4.85;;;;;;;23.40;68.26;101691.44;4932111;28;102000;-88
2021/08/14 09:58:23;;;;;;;5.32;4.70;;;;;;;23.41;68.40;101693.91;4936934;28;102788;-87
2021/08/14 10:00:52;;;;;;;;;;;;;;;23.41;68.07;101676.44;4940919;28;102052;-87
2021/08/14 10:03:20;;;;;;;5.10;4.55;;;;;;;23.40;68.19;101680.34;4948853;28;102112;-87
2021/08/14 10:05:47;;;;;;;5.10;4.37;;;;;;;23.41;68.21;101681.97;4935177;28;102243;-88
2021/08/14 10:08:14;;;;;;;5.13;4.63;;;;;;;23.40;68.14;101669.22;4947307;28;103245;-87
2021/08/14 10:10:41;;;;;;;4.68;4.28;;;;;;;23.41;68.40;101687.53;4941825;28;102238;-86
2021/08/14 10:13:12;;;;;;;5.80;4.20;;;;;;;23.40;68.27;101663.66;4925557;28;102006;-87
2021/08/14 10:15:38;;;;;;;5.05;4.55;;;;;;;23.40;68.33;101670.03;4945239;28;102233;-87
2021/08/14 10:18:05;;;;;;;5.00;4.00;;;;;;;23.40;68.52;101667.25;4941254;28;103046;-87
2021/08/14 10:20:33;;;;;;;5.00;4.45;;;;;;;23.39;68.06;101662.03;4947649;28;102214;-87
2021/08/14 10:23:01;;;;;;;4.50;4.10;;;;;;;23.40;68.64;101669.22;4938240;28;101961;-88
2021/08/14 10:25:29;;;;;;;4.95;4.55;;;;;;;23.39;68.52;101662.84;4940340;28;102088;-89
2021/08/14 10:27:58;;;;;;;;;;;;;;;23.39;68.58;101653.72;4942609;28;102715;-89
2021/08/14 10:30:48;;;;;;;5.05;4.55;;;;;;;23.39;68.59;101662.03;4928591;28;102025;-87
2021/08/14 10:33:35;;;;;;;4.40;4.00;;;;;;;23.39;68.44;101656.50;4944331;28;102005;-89
2021/08/14 10:36:34;;;;;;;4.55;3.83;;;;;;;23.39;68.32;101650.94;4943052;28;102215;-88
2021/08/14 10:39:15;;;;;;;5.05;4.50;;;;;;;23.38;68.57;101639.00;4932245;28;101879;-89
2021/08/14 10:41:43;;;;;;;4.88;4.40;;;;;;;23.39;68.26;101645.38;4946443;28;101743;-88
2021/08/14 10:44:13;;;;;;;5.45;4.95;;;;;;;23.37;68.39;101637.41;4966205;28;101903;-89
2021/08/14 10:46:51;;;;;;;4.75;4.25;;;;;;;23.38;68.52;101641.78;4959181;28;102038;-88
2021/08/14 10:49:38;;;;;;;4.93;4.45;;;;;;;23.37;68.57;101636.56;4945912;28;102732;-88
2021/08/14 10:52:08;;;;;;;4.78;4.38;;;;;;;23.37;68.50;101648.50;4943457;28;101875;-88
2021/08/14 10:55:01;;;;;;;5.43;4.93;;;;;;;23.37;68.39;101644.88;4943050;28;102039;-88
2021/08/14 10:57:40;;;;;;;4.72;3.95;;;;;;;23.37;68.47;101631.00;4948333;28;102061;-88
2021/08/14 11:00:15;;;;;;;4.85;4.45;;;;;;;23.38;68.54;101646.53;4957830;28;102730;-88
2021/08/14 11:03:11;;;;;;;4.43;3.92;;;;;;;23.36;68.51;101646.84;4966978;28;101703;-88
2021/08/14 11:05:41;;;;;;;4.50;4.10;;;;;;;23.37;68.67;101631.00;4963756;28;101530;-88
2021/08/14 11:08:30;;;;;;;5.32;4.80;;;;;;;23.35;68.59;101636.09;4965102;28;102104;-88
2021/08/14 11:10:59;;;;;;;5.43;4.75;;;;;;;23.35;68.54;101633.31;4961967;28;102006;-88
2021/08/14 11:14:05;;;;;;;5.07;4.60;;;;;;;23.35;68.77;101631.34;4963970;28;101900;-89
2021/08/14 11:16:57;;;;;;;4.75;4.28;;;;;;;23.35;68.50;101633.31;4947280;28;101888;-88
2021/08/14 11:19:47;;;;;;;5.05;4.55;;;;;;;23.35;68.63;101627.75;4960572;28;101910;-89
2021/08/14 11:22:29;;;;;;;5.38;4.70;;;;;;;23.34;68.74;101624.19;4945582;28;102844;-88
2021/08/14 11:24:59;;;;;;;5.38;4.80;;;;;;;23.34;68.59;101626.16;4944807;28;101722;-88
2021/08/14 11:27:27;;;;;;;5.57;4.95;;;;;;;23.33;68.76;101625.31;4946435;28;101748;-89